createdAt,value
2017-12-31T00:00:46.888Z,9.85
2017-12-31T00:05:51.116Z,10.24
2017-12-31T00:08:29.096Z,10.30
2017-12-31T00:11:16.707Z,10.38
2017-12-31T00:13:45.725Z,10.41
2017-12-31T00:18:49.981Z,10.57
2017-12-31T00:24:00.200Z,10.76
2017-12-31T00:29:13.501Z,10.82
2017-12-31T00:31:42.562Z,10.77
2017-12-31T00:34:11.627Z,10.69
2017-12-31T00:36:48.261Z,10.79
2017-12-31T00:39:17.330Z,10.72
2017-12-31T00:41:46.372Z,10.76
2017-12-31T00:46:50.635Z,10.77
2017-12-31T00:49:25.505Z,10.86
2017-12-31T00:51:58.297Z,11.00
2017-12-31T00:54:27.753Z,10.83
2017-12-31T00:57:02.015Z,10.92
2017-12-31T00:59:31.102Z,10.90
2017-12-31T01:02:01.046Z,10.84
2017-12-31T01:04:30.090Z,10.91
2017-12-31T01:07:08.241Z,10.83
2017-12-31T01:09:37.288Z,10.94
2017-12-31T01:12:09.813Z,10.88
2017-12-31T01:14:38.858Z,10.80
2017-12-31T01:17:08.808Z,10.75
2017-12-31T01:19:37.841Z,10.88
2017-12-31T01:22:08.879Z,10.87
2017-12-31T01:24:38.012Z,10.87
2017-12-31T01:29:42.253Z,10.84
2017-12-31T01:32:23.230Z,10.88
2017-12-31T01:35:01.100Z,10.81
2017-12-31T01:37:30.166Z,10.97
2017-12-31T01:40:12.622Z,10.83
2017-12-31T01:42:41.664Z,10.90
2017-12-31T01:45:23.398Z,10.96
2017-12-31T01:47:52.415Z,11.01
2017-12-31T01:50:23.361Z,10.93
2017-12-31T01:53:00.641Z,10.96
2017-12-31T01:55:29.657Z,10.85
2017-12-31T01:58:20.743Z,10.93
2017-12-31T02:00:50.741Z,10.87
2017-12-31T02:03:23.513Z,11.00
2017-12-31T02:06:06.190Z,10.92
2017-12-31T02:08:35.255Z,10.89
2017-12-31T02:11:04.370Z,10.97
2017-12-31T02:13:35.760Z,10.92
2017-12-31T02:16:05.370Z,10.80
2017-12-31T02:18:34.434Z,10.65
2017-12-31T02:21:03.482Z,10.68
2017-12-31T02:23:32.525Z,10.65
2017-12-31T02:26:01.570Z,10.80
2017-12-31T02:28:30.601Z,10.66
2017-12-31T02:33:34.833Z,10.77
2017-12-31T02:38:39.069Z,10.95
2017-12-31T02:43:43.361Z,10.76
2017-12-31T02:48:48.574Z,10.85
2017-12-31T02:53:52.837Z,10.78
2017-12-31T02:56:22.809Z,10.66
2017-12-31T02:59:04.747Z,10.58
2017-12-31T03:01:33.847Z,10.65
2017-12-31T03:04:24.333Z,10.50
2017-12-31T03:06:53.382Z,10.46
2017-12-31T03:09:23.350Z,10.49
2017-12-31T03:11:52.452Z,10.33
2017-12-31T03:17:07.806Z,10.58
2017-12-31T03:19:36.855Z,10.51
2017-12-31T03:22:13.522Z,10.41
2017-12-31T03:24:42.573Z,10.41
2017-12-31T03:27:13.529Z,10.47
2017-12-31T03:29:42.606Z,10.52
2017-12-31T03:32:15.793Z,10.44
2017-12-31T03:34:48.384Z,10.46
2017-12-31T03:37:17.413Z,10.42
2017-12-31T03:39:46.460Z,10.31
2017-12-31T03:42:23.661Z,10.24
2017-12-31T03:45:07.314Z,10.31
2017-12-31T03:47:36.344Z,10.23
2017-12-31T03:50:18.381Z,10.19
2017-12-31T03:52:51.188Z,10.14
2017-12-31T03:57:59.362Z,10.18
2017-12-31T04:00:28.401Z,10.23
2017-12-31T04:02:57.441Z,10.30
2017-12-31T04:05:26.471Z,10.47
2017-12-31T04:10:30.759Z,10.61
2017-12-31T04:13:00.789Z,10.68
2017-12-31T04:15:29.809Z,10.67
2017-12-31T04:17:58.858Z,10.68
2017-12-31T04:20:27.906Z,10.65
2017-12-31T04:25:32.208Z,10.72
2017-12-31T04:30:36.442Z,10.83
2017-12-31T04:35:40.676Z,10.81
2017-12-31T04:40:45.418Z,10.92
2017-12-31T04:43:16.438Z,10.80
2017-12-31T04:45:45.477Z,10.82
2017-12-31T04:48:23.418Z,10.75
2017-12-31T04:50:52.461Z,10.66
2017-12-31T04:53:21.518Z,10.66
2017-12-31T04:58:27.757Z,10.86
2017-12-31T05:03:32.014Z,10.86
2017-12-31T05:06:01.047Z,10.86
2017-12-31T05:08:30.085Z,10.81
2017-12-31T05:13:34.322Z,10.88
2017-12-31T05:16:15.356Z,10.89
2017-12-31T05:18:48.349Z,10.96
2017-12-31T05:21:24.409Z,10.77
2017-12-31T05:24:03.331Z,10.80
2017-12-31T05:26:32.369Z,10.86
2017-12-31T05:29:01.411Z,10.82
2017-12-31T05:31:30.461Z,10.77
2017-12-31T05:33:59.513Z,10.88
2017-12-31T05:36:28.553Z,10.93
2017-12-31T05:38:57.650Z,10.98
2017-12-31T05:41:29.993Z,10.95
2017-12-31T05:43:59.034Z,10.96
2017-12-31T05:46:31.503Z,10.94
2017-12-31T05:49:00.545Z,10.82
2017-12-31T05:54:04.841Z,11.00
2017-12-31T05:56:37.590Z,11.12
2017-12-31T05:59:09.599Z,11.05
2017-12-31T06:01:38.617Z,11.03
2017-12-31T06:04:08.705Z,11.03
2017-12-31T06:06:41.781Z,11.11
2017-12-31T06:09:24.556Z,11.11
2017-12-31T06:11:53.597Z,11.07
2017-12-31T06:14:34.562Z,11.04
2017-12-31T06:17:03.598Z,11.04
2017-12-31T06:19:46.141Z,11.11
2017-12-31T06:22:30.067Z,11.00
2017-12-31T06:24:59.125Z,11.00
2017-12-31T06:27:30.124Z,10.96
2017-12-31T06:29:59.162Z,10.87
2017-12-31T06:32:35.416Z,10.91
2017-12-31T06:35:04.457Z,11.09
2017-12-31T06:37:33.500Z,10.91
2017-12-31T06:40:02.542Z,11.04
2017-12-31T06:42:31.601Z,10.93
2017-12-31T06:45:00.659Z,10.94
2017-12-31T06:47:33.841Z,10.95
2017-12-31T06:50:02.881Z,10.98
2017-12-31T06:52:31.950Z,10.98
2017-12-31T06:55:00.977Z,10.91
2017-12-31T06:57:32.009Z,10.83
2017-12-31T07:00:01.054Z,10.78
2017-12-31T07:02:35.237Z,10.70
2017-12-31T07:05:04.340Z,10.68
2017-12-31T07:07:33.371Z,10.69
2017-12-31T07:10:02.414Z,10.69
2017-12-31T07:12:31.457Z,10.69
2017-12-31T07:15:00.518Z,10.68
2017-12-31T07:17:29.555Z,10.65
2017-12-31T07:19:58.600Z,10.65
2017-12-31T07:22:27.632Z,10.62
2017-12-31T07:24:56.700Z,10.60
2017-12-31T07:30:08.584Z,10.74
2017-12-31T07:32:37.592Z,10.75
2017-12-31T07:35:07.650Z,10.72
2017-12-31T07:37:36.689Z,10.76
2017-12-31T07:40:05.725Z,10.73
2017-12-31T07:42:35.672Z,10.69
2017-12-31T07:45:04.733Z,10.69
2017-12-31T07:47:33.789Z,10.69
2017-12-31T07:50:02.829Z,10.67
2017-12-31T07:52:31.864Z,10.61
2017-12-31T07:55:00.907Z,10.58
2017-12-31T07:57:29.976Z,10.68
2017-12-31T07:59:59.048Z,10.60
2017-12-31T08:02:28.080Z,10.49
2017-12-31T08:04:57.265Z,10.59
2017-12-31T08:07:26.306Z,10.57
2017-12-31T08:09:55.374Z,10.63
2017-12-31T08:12:28.137Z,10.51
2017-12-31T08:14:57.192Z,10.52
2017-12-31T08:17:26.245Z,10.47
2017-12-31T08:19:55.299Z,10.46
2017-12-31T08:22:24.338Z,10.53
2017-12-31T08:24:53.509Z,10.57
2017-12-31T08:27:22.525Z,10.58
2017-12-31T08:29:51.583Z,10.64
2017-12-31T08:32:20.623Z,10.70
2017-12-31T08:34:49.667Z,10.73
2017-12-31T08:37:18.738Z,10.71
2017-12-31T08:39:47.765Z,10.74
2017-12-31T08:42:16.838Z,10.83
2017-12-31T08:44:45.886Z,10.97
2017-12-31T08:47:14.933Z,10.97
2017-12-31T08:52:19.214Z,11.56
2017-12-31T08:54:48.268Z,12.35
2017-12-31T08:57:17.313Z,12.83
2017-12-31T08:59:46.359Z,13.25
2017-12-31T09:02:15.411Z,13.33
2017-12-31T09:04:48.450Z,13.58
2017-12-31T09:07:17.511Z,13.61
2017-12-31T09:12:21.817Z,14.18
2017-12-31T09:14:52.293Z,14.33
2017-12-31T09:17:21.340Z,14.05
2017-12-31T09:19:50.393Z,14.43
2017-12-31T09:22:19.437Z,13.87
2017-12-31T09:27:23.787Z,14.59
2017-12-31T09:29:52.838Z,14.47
2017-12-31T09:32:21.882Z,14.42
2017-12-31T09:37:26.150Z,14.84
2017-12-31T09:42:30.495Z,14.90
2017-12-31T09:45:01.493Z,14.46
2017-12-31T09:47:30.543Z,14.65
2017-12-31T09:49:59.568Z,14.34
2017-12-31T09:52:58.143Z,14.57
2017-12-31T09:55:27.192Z,14.35
2017-12-31T09:58:01.036Z,14.09
2017-12-31T10:00:30.067Z,13.98
2017-12-31T10:05:34.349Z,13.22
2017-12-31T10:08:03.504Z,13.22
2017-12-31T10:10:32.557Z,13.21
2017-12-31T10:13:01.593Z,13.99
2017-12-31T10:15:30.642Z,13.99
2017-12-31T10:18:00.610Z,12.90
2017-12-31T10:20:29.657Z,12.49
2017-12-31T10:25:33.998Z,13.04
2017-12-31T10:28:03.058Z,13.52
2017-12-31T10:30:32.129Z,13.36
2017-12-31T10:33:01.190Z,13.65
2017-12-31T10:35:30.227Z,14.00
2017-12-31T10:37:59.279Z,14.60
2017-12-31T10:40:28.325Z,14.57
2017-12-31T10:42:57.361Z,14.87
2017-12-31T10:45:26.405Z,14.83
2017-12-31T10:47:55.459Z,15.11
2017-12-31T10:50:24.678Z,15.55
2017-12-31T10:52:54.653Z,15.97
2017-12-31T10:55:23.686Z,15.68
2017-12-31T11:03:15.566Z,15.87
2017-12-31T11:05:45.525Z,15.79
2017-12-31T11:08:15.467Z,15.96
2017-12-31T11:10:44.551Z,15.94
2017-12-31T11:13:13.602Z,16.54
2017-12-31T11:18:17.922Z,15.09
2017-12-31T11:20:46.996Z,15.20
2017-12-31T11:23:16.061Z,15.44
2017-12-31T11:25:45.175Z,15.26
2017-12-31T11:28:15.161Z,16.03
2017-12-31T11:30:48.317Z,15.59
2017-12-31T11:33:17.420Z,15.42
2017-12-31T11:35:46.560Z,15.72
2017-12-31T11:38:15.677Z,15.87
2017-12-31T11:40:44.710Z,16.22
2017-12-31T11:43:13.777Z,16.74
2017-12-31T11:45:42.865Z,17.21
2017-12-31T11:48:11.894Z,16.85
2017-12-31T11:53:16.169Z,17.04
2017-12-31T11:55:45.229Z,17.11
2017-12-31T12:00:49.501Z,17.54
2017-12-31T12:03:18.717Z,17.18
2017-12-31T12:05:47.785Z,16.52
2017-12-31T12:08:16.818Z,16.12
2017-12-31T12:10:45.862Z,15.71
2017-12-31T12:13:14.897Z,15.97
2017-12-31T12:15:43.937Z,15.41
2017-12-31T12:18:12.989Z,15.13
2017-12-31T12:20:42.038Z,14.81
2017-12-31T12:23:11.086Z,14.17
2017-12-31T12:25:43.625Z,14.07
2017-12-31T12:28:12.684Z,14.24
2017-12-31T12:33:17.114Z,14.08
2017-12-31T12:35:46.164Z,14.15
2017-12-31T12:38:15.197Z,14.30
2017-12-31T12:40:45.156Z,14.42
2017-12-31T12:43:14.196Z,14.16
2017-12-31T12:45:44.226Z,14.49
2017-12-31T12:48:13.249Z,14.72
2017-12-31T12:50:42.303Z,14.84
2017-12-31T12:53:11.365Z,14.32
2017-12-31T12:55:45.313Z,14.13
2017-12-31T12:58:14.436Z,14.30
2017-12-31T13:03:18.681Z,14.72
2017-12-31T13:05:47.732Z,15.00
2017-12-31T13:08:17.770Z,15.51
2017-12-31T13:10:46.870Z,15.13
2017-12-31T13:13:15.991Z,15.74
2017-12-31T13:15:45.013Z,16.23
2017-12-31T13:18:14.975Z,16.76
2017-12-31T13:20:44.005Z,16.68
2017-12-31T13:23:13.112Z,16.79
2017-12-31T13:28:17.358Z,17.76
2017-12-31T13:30:46.448Z,17.85
2017-12-31T13:33:15.487Z,17.28
2017-12-31T13:35:44.551Z,17.25
2017-12-31T13:38:13.590Z,18.06
2017-12-31T13:40:43.694Z,17.57
2017-12-31T13:43:13.638Z,17.80
2017-12-31T13:45:42.725Z,17.77
2017-12-31T13:48:11.856Z,17.12
2017-12-31T13:50:41.030Z,16.35
2017-12-31T13:53:10.174Z,16.04
2017-12-31T13:55:39.223Z,15.84
2017-12-31T13:58:08.316Z,15.33
2017-12-31T14:03:12.708Z,15.39
2017-12-31T14:05:41.737Z,15.80
2017-12-31T14:10:46.093Z,14.07
2017-12-31T14:13:15.121Z,13.92
2017-12-31T14:15:44.255Z,13.77
2017-12-31T14:18:15.384Z,13.49
2017-12-31T14:20:44.419Z,13.22
2017-12-31T14:23:14.452Z,13.12
2017-12-31T14:25:43.498Z,12.87
2017-12-31T14:28:13.633Z,12.92
2017-12-31T14:30:43.206Z,12.73
2017-12-31T14:33:14.212Z,12.47
2017-12-31T14:35:43.294Z,12.46
2017-12-31T14:38:13.546Z,12.26
2017-12-31T14:40:42.684Z,12.22
2017-12-31T14:43:11.739Z,11.99
2017-12-31T14:45:40.818Z,11.90
2017-12-31T14:48:10.841Z,11.79
2017-12-31T14:50:40.040Z,11.66
2017-12-31T14:53:12.829Z,11.71
2017-12-31T14:55:41.961Z,11.72
2017-12-31T14:58:11.124Z,11.66
2017-12-31T15:00:40.171Z,11.77
2017-12-31T15:03:09.264Z,11.61
2017-12-31T15:05:38.257Z,11.58
2017-12-31T15:08:07.314Z,11.48
2017-12-31T15:10:39.578Z,11.32
2017-12-31T15:13:12.117Z,11.23
2017-12-31T15:15:41.272Z,11.15
2017-12-31T15:18:10.388Z,11.10
2017-12-31T15:20:39.430Z,10.97
2017-12-31T15:23:09.539Z,10.74
2017-12-31T15:25:38.610Z,10.44
2017-12-31T15:30:42.878Z,9.90
2017-12-31T15:33:12.117Z,9.85
2017-12-31T15:35:46.439Z,9.61
2017-12-31T15:38:15.452Z,9.24
2017-12-31T15:40:44.485Z,8.89
2017-12-31T15:43:14.377Z,8.64
2017-12-31T15:48:18.657Z,8.69
2017-12-31T15:50:47.705Z,8.54
2017-12-31T15:53:16.743Z,8.49
2017-12-31T15:55:48.940Z,8.36
2017-12-31T15:58:18.094Z,8.26
2017-12-31T16:00:48.348Z,8.39
2017-12-31T16:03:17.588Z,8.35
2017-12-31T16:05:46.635Z,8.14
2017-12-31T16:08:15.730Z,7.98
2017-12-31T16:10:44.898Z,7.77
2017-12-31T16:13:13.976Z,7.46
2017-12-31T16:15:43.055Z,7.23
2017-12-31T16:18:12.112Z,6.90
2017-12-31T16:20:41.150Z,6.58
2017-12-31T16:23:10.176Z,6.34
2017-12-31T16:25:40.239Z,6.35
2017-12-31T16:28:09.257Z,6.38
2017-12-31T16:30:45.878Z,6.11
2017-12-31T16:33:14.936Z,5.92
2017-12-31T16:35:43.980Z,5.73
2017-12-31T16:38:13.022Z,5.62
2017-12-31T16:43:17.229Z,5.47
2017-12-31T16:45:46.273Z,5.33
2017-12-31T16:48:15.309Z,5.41
2017-12-31T16:50:44.354Z,5.54
2017-12-31T16:55:50.589Z,5.69
2017-12-31T16:58:19.625Z,5.78
2017-12-31T17:03:23.849Z,5.92
2017-12-31T17:05:52.893Z,6.00
2017-12-31T17:08:21.930Z,5.65
2017-12-31T17:10:55.325Z,5.49
2017-12-31T17:13:24.353Z,5.22
2017-12-31T17:15:53.393Z,5.33
2017-12-31T17:18:23.428Z,5.27
2017-12-31T17:20:52.464Z,5.23
2017-12-31T17:23:21.512Z,5.21
2017-12-31T17:25:50.570Z,5.27
2017-12-31T17:28:19.605Z,5.41
2017-12-31T17:30:48.641Z,5.38
2017-12-31T17:33:18.603Z,5.42
2017-12-31T17:35:47.648Z,5.06
2017-12-31T17:38:16.699Z,4.81
2017-12-31T17:43:20.908Z,4.50
2017-12-31T17:45:49.950Z,4.31
2017-12-31T17:48:18.985Z,4.17
2017-12-31T17:50:49.096Z,4.18
2017-12-31T17:53:18.138Z,4.03
2017-12-31T17:55:47.162Z,3.92
2017-12-31T17:58:16.196Z,3.89
2017-12-31T18:00:45.217Z,3.81
2017-12-31T18:03:15.202Z,3.81
2017-12-31T18:05:44.238Z,4.01
2017-12-31T18:08:15.252Z,4.30
2017-12-31T18:10:44.290Z,4.45
2017-12-31T18:13:16.939Z,4.58
2017-12-31T18:15:45.990Z,4.73
2017-12-31T18:18:15.941Z,4.81
2017-12-31T18:20:44.985Z,4.85
2017-12-31T18:23:18.610Z,4.89
2017-12-31T18:25:47.643Z,4.90
2017-12-31T18:28:16.696Z,4.90
2017-12-31T18:30:45.717Z,4.89
2017-12-31T18:33:14.768Z,4.84
2017-12-31T18:35:43.805Z,4.79
2017-12-31T18:38:12.841Z,4.58
2017-12-31T18:40:41.918Z,4.51
2017-12-31T18:43:12.879Z,4.18
2017-12-31T18:45:41.921Z,4.17
2017-12-31T18:48:10.993Z,4.21
2017-12-31T18:50:40.932Z,4.30
2017-12-31T18:53:09.980Z,4.29
2017-12-31T18:55:40.909Z,4.45
2017-12-31T18:58:09.954Z,4.58
2017-12-31T19:00:39.953Z,4.53
2017-12-31T19:03:08.980Z,4.52
2017-12-31T19:05:38.026Z,4.47
2017-12-31T19:08:15.047Z,4.46
2017-12-31T19:10:44.085Z,4.44
2017-12-31T19:13:16.723Z,4.25
2017-12-31T19:15:46.833Z,4.02
2017-12-31T19:18:15.847Z,3.87
2017-12-31T19:20:54.373Z,3.91
2017-12-31T19:23:23.443Z,3.75
2017-12-31T19:25:52.494Z,3.53
2017-12-31T19:30:57.293Z,3.57
2017-12-31T19:33:26.321Z,3.66
2017-12-31T19:35:55.360Z,3.69
2017-12-31T19:38:25.340Z,3.57
2017-12-31T19:40:54.383Z,3.55
2017-12-31T19:43:23.445Z,3.55
2017-12-31T19:45:53.457Z,3.65
2017-12-31T19:48:22.521Z,3.58
2017-12-31T19:50:51.538Z,3.40
2017-12-31T19:53:20.618Z,3.38
2017-12-31T19:55:53.817Z,3.22
2017-12-31T19:58:22.857Z,3.07
2017-12-31T20:00:55.442Z,3.04
2017-12-31T20:03:26.478Z,2.99
2017-12-31T20:05:59.122Z,2.96
2017-12-31T20:08:28.173Z,3.00
2017-12-31T20:10:57.237Z,3.07
2017-12-31T20:13:28.271Z,2.97
2017-12-31T20:15:57.289Z,2.96
2017-12-31T20:18:26.345Z,2.95
2017-12-31T20:20:58.966Z,2.92
2017-12-31T20:23:29.917Z,3.06
2017-12-31T20:25:58.981Z,3.20
2017-12-31T20:28:30.037Z,3.21
2017-12-31T20:33:35.950Z,3.39
2017-12-31T20:36:05.003Z,3.43
2017-12-31T20:38:34.033Z,3.54
2017-12-31T20:41:03.073Z,3.66
2017-12-31T20:43:32.109Z,3.58
2017-12-31T20:46:01.174Z,3.67
2017-12-31T20:48:38.205Z,3.73
2017-12-31T20:51:07.256Z,3.71
2017-12-31T20:53:36.285Z,3.63
2017-12-31T20:56:05.333Z,3.76
2017-12-31T20:58:34.379Z,3.95
2017-12-31T21:01:03.432Z,3.90
2017-12-31T21:03:39.933Z,3.74
2017-12-31T21:06:08.976Z,3.77
2017-12-31T21:08:38.025Z,3.60
2017-12-31T21:11:07.082Z,3.34
2017-12-31T21:13:40.790Z,3.24
2017-12-31T21:16:09.847Z,3.23
2017-12-31T21:21:14.166Z,3.28
2017-12-31T21:23:46.861Z,3.27
2017-12-31T21:26:15.909Z,3.19
2017-12-31T21:31:24.121Z,3.43
2017-12-31T21:33:55.152Z,3.43
2017-12-31T21:36:27.812Z,3.41
2017-12-31T21:38:56.861Z,3.25
2017-12-31T21:41:27.846Z,3.27
2017-12-31T21:46:37.005Z,3.58
2017-12-31T21:49:06.042Z,3.61
2017-12-31T21:51:40.976Z,3.74
2017-12-31T21:54:09.997Z,3.76
2017-12-31T21:56:39.046Z,3.72
2017-12-31T22:04:15.586Z,3.69
2017-12-31T22:09:19.822Z,3.45
2017-12-31T22:11:48.873Z,3.54
2017-12-31T22:14:17.930Z,3.33
2017-12-31T22:16:53.205Z,3.39
2017-12-31T22:19:22.220Z,3.41
2017-12-31T22:21:53.246Z,3.47
2017-12-31T22:26:57.579Z,3.53
2017-12-31T22:29:26.603Z,3.39
2017-12-31T22:31:57.631Z,3.40
2017-12-31T22:34:26.702Z,3.43
2017-12-31T22:36:55.744Z,3.34
2017-12-31T22:39:28.008Z,3.27
2017-12-31T22:41:57.042Z,3.29
2017-12-31T22:44:27.067Z,3.13
2017-12-31T22:46:57.041Z,2.93
2017-12-31T22:49:26.075Z,2.94
2017-12-31T22:51:55.113Z,2.81
2017-12-31T22:54:24.161Z,2.83
2017-12-31T22:57:04.809Z,2.89
2017-12-31T22:59:33.826Z,2.96
2017-12-31T23:02:03.786Z,3.02
2017-12-31T23:04:32.835Z,3.07
2017-12-31T23:07:17.561Z,3.13
2017-12-31T23:09:46.632Z,3.25
2017-12-31T23:12:16.589Z,3.21
2017-12-31T23:14:45.651Z,3.26
2017-12-31T23:17:15.613Z,3.20
2017-12-31T23:19:44.707Z,3.15
2017-12-31T23:22:13.725Z,3.27
2017-12-31T23:24:42.782Z,3.22
2017-12-31T23:27:11.858Z,3.20
2017-12-31T23:29:40.866Z,3.14
2017-12-31T23:32:09.918Z,3.11
2017-12-31T23:34:38.964Z,3.21
2017-12-31T23:37:08.917Z,3.36
2017-12-31T23:39:37.954Z,3.48
2017-12-31T23:42:12.784Z,3.52
2017-12-31T23:44:41.826Z,3.53
2017-12-31T23:47:10.897Z,3.59
2017-12-31T23:49:39.945Z,3.63
2017-12-31T23:52:11.056Z,3.58
2017-12-31T23:54:40.089Z,3.70
2017-12-31T23:57:09.145Z,3.84
2017-12-31T23:59:38.186Z,3.87
